Mill Village, Pennsylvania
Current Conditions -  °F | °C
As of 8:51 AM on Thursday 18 Dec 2014 (Local Time) from KERI Reporting Station
Overcast Overcast  
Wind Chill: -5°   Ceiling: 1800
Heat Index:   Visibility: 10mi
Dew Point: -4°   Wind: 10mph
Humidity: 73%   Direction: 260°W
Pressure: 30.16"   Gusts: 20mph
Location:  41.88°N, 79.97°W
Report Text: KERI 181351Z 26009G17KT 10SM BKN018 OVC023 00/M04 A3016 RMK AO2 SLP220 T00001044
Loading
Personal Weather Stations






























Interactive Weather Map New forecast layout! Learn more

10-Day Weather Forecast

Advertisements
Track Severe Weather on mobile